Saint Agatha, Maine
Current Conditions -  °F | °C
As of 7:53 AM on Tuesday 21 Oct 2014 (Local Time) from KFVE Reporting Station
Clear Clear  
Wind Chill: 23°   Ceiling: Unl
Heat Index: 29°   Visibility: 10mi
Dew Point: 25°   Wind: 6mph
Humidity: 85%   Direction: 320°NW
Pressure: 30.05"   Gusts: NA
Location:  47.24°N, 68.31°W
Report Text: KFVE 211153Z AUTO 32005KT 10SM CLR M02/M04 A3005 RMK AO2 SLP186 T10171039 11017 21033 51020
Loading
Personal Weather Stations






























Interactive Weather Map
Tropical Storm Tracking
New forecast layout! Learn more

10-Day Weather Forecast

Advertisements
Track Severe Weather on mobile